Time;durP1;ratioP1;P1;durP2;ratioP2;P2;SDS_P1;SDS_P2;PMS_P1;PMS_P2;Temp;Humidity;BMP_temperature;BMP_pressure;BME280_temperature;BME280_humidity;BME280_pressure;Samples;Min_cycle;Max_cycle;Signal;HPM_P1;HPM_P2
2022/08/17 00:00:31;;;;;;;8.00;7.30;;;22.40;99.90;;;;;;5051940;28;20817;-70
2022/08/17 00:03:12;;;;;;;12.70;8.87;;;22.40;99.90;;;;;;5033478;28;20406;-70
2022/08/17 00:05:59;;;;;;;9.20;8.30;;;22.30;99.90;;;;;;5051096;28;20477;-70
2022/08/17 00:08:28;;;;;;;10.37;8.30;;;22.20;99.90;;;;;;5051208;28;20419;-70
2022/08/17 00:10:54;;;;;;;9.40;8.10;;;22.20;99.90;;;;;;5050326;28;20395;-70
2022/08/17 00:13:36;;;;;;;9.67;8.33;;;22.10;99.90;;;;;;5050854;28;20400;-70
2022/08/17 00:16:12;;;;;;;10.77;9.30;;;22.10;99.90;;;;;;5050628;28;20411;-69
2022/08/17 00:18:38;;;;;;;10.40;9.40;;;22.00;99.90;;;;;;5051087;28;20412;-69
2022/08/17 00:21:07;;;;;;;10.50;9.40;;;22.00;99.90;;;;;;5050725;28;20490;-71
2022/08/17 00:23:33;;;;;;;9.70;8.80;;;22.00;99.90;;;;;;5051104;28;20171;-69
2022/08/17 00:25:59;;;;;;;11.93;10.70;;;22.00;99.90;;;;;;5050543;28;20449;-70
2022/08/17 00:28:25;;;;;;;15.83;9.07;;;21.90;99.90;;;;;;5050704;28;20445;-70
2022/08/17 00:30:51;;;;;;;9.93;8.50;;;21.90;99.90;;;;;;5050786;28;20407;-70
2022/08/17 00:33:19;;;;;;;9.67;8.00;;;21.90;99.90;;;;;;5050948;28;20177;-71
2022/08/17 00:35:47;;;;;;;10.10;8.80;;;21.90;99.90;;;;;;5050314;28;20629;-71
2022/08/17 00:38:13;;;;;;;9.17;8.03;;;21.90;99.90;;;;;;5050559;28;20423;-70
2022/08/17 00:40:42;;;;;;;11.07;8.73;;;21.90;99.90;;;;;;5050533;28;20394;-70
2022/08/17 00:43:14;;;;;;;13.53;9.33;;;21.90;99.90;;;;;;5050481;28;20414;-70
2022/08/17 00:45:41;;;;;;;14.87;9.53;;;21.90;99.90;;;;;;5050057;28;20445;-70
2022/08/17 00:48:06;;;;;;;10.90;9.80;;;21.80;99.90;;;;;;5050406;28;20835;-70
2022/08/17 00:50:34;;;;;;;13.73;9.50;;;21.80;99.90;;;;;;5050448;28;20399;-70
2022/08/17 00:53:00;;;;;;;11.50;9.60;;;21.70;99.90;;;;;;5050811;28;20175;-70
2022/08/17 00:55:26;;;;;;;11.50;9.60;;;21.70;99.90;;;;;;5050235;28;20411;-70
2022/08/17 00:57:57;;;;;;;12.57;9.90;;;21.70;99.90;;;;;;5050747;28;20185;-70
2022/08/17 01:00:28;;;;;;;9.97;8.90;;;21.70;99.90;;;;;;5053352;28;20555;-70
2022/08/17 01:02:57;;;;;;;11.93;10.03;;;21.70;99.90;;;;;;5050571;28;20398;-70
2022/08/17 01:05:26;;;;;;;10.40;9.20;;;21.70;99.90;;;;;;5049992;28;20485;-70
2022/08/17 01:07:52;;;;;;;12.80;10.07;;;21.60;99.90;;;;;;5050460;28;20770;-70
2022/08/17 01:10:27;;;;;;;13.40;10.33;;;21.70;99.90;;;;;;5050593;28;20442;-70
2022/08/17 01:12:53;;;;;;;13.37;9.33;;;21.70;99.90;;;;;;5051683;28;20398;-70
2022/08/17 01:15:19;;;;;;;11.20;10.10;;;21.80;99.90;;;;;;5052657;28;20473;-70
2022/08/17 01:17:45;;;;;;;10.10;8.77;;;21.80;99.90;;;;;;5050813;28;20507;-70
2022/08/17 01:20:11;;;;;;;9.97;8.97;;;21.70;99.90;;;;;;5050380;28;20701;-70
2022/08/17 01:22:37;;;;;;;11.10;9.07;;;21.70;99.90;;;;;;5050360;28;20458;-72
2022/08/17 01:25:06;;;;;;;10.70;9.67;;;21.70;99.90;;;;;;5052888;28;20435;-71
2022/08/17 01:27:32;;;;;;;11.57;9.20;;;21.60;99.90;;;;;;5054171;28;20211;-71
2022/08/17 01:30:03;;;;;;;14.20;10.93;;;21.60;99.90;;;;;;5054420;28;20425;-71
2022/08/17 01:32:29;;;;;;;12.20;10.57;;;21.60;99.90;;;;;;5054226;28;20484;-71
2022/08/17 01:34:55;;;;;;;10.13;9.10;;;21.60;99.90;;;;;;5053974;28;20488;-71
2022/08/17 01:37:34;;;;;;;9.20;8.33;;;21.60;99.90;;;;;;5054030;28;20244;-71
2022/08/17 01:40:17;;;;;;;12.53;10.57;;;21.60;99.90;;;;;;5054375;28;20423;-71
2022/08/17 01:42:57;;;;;;;10.50;9.07;;;21.70;99.90;;;;;;5054432;28;20464;-70
2022/08/17 01:45:27;;;;;;;11.90;9.40;;;21.70;99.90;;;;;;5053925;28;20546;-70
2022/08/17 01:47:54;;;;;;;13.83;8.97;;;21.70;99.90;;;;;;5054311;28;20755;-69
2022/08/17 01:50:24;;;;;;;11.00;9.63;;;21.70;99.90;;;;;;5053982;28;20487;-70
2022/08/17 01:52:55;;;;;;;12.17;10.87;;;21.60;99.90;;;;;;5054069;28;20404;-70
2022/08/17 01:55:25;;;;;;;11.97;9.77;;;21.60;99.90;;;;;;5053729;28;20405;-70
2022/08/17 01:57:51;;;;;;;13.30;9.83;;;21.50;99.90;;;;;;5053803;28;20456;-70
2022/08/17 02:00:17;;;;;;;11.33;10.00;;;21.50;99.90;;;;;;5053754;28;20436;-69
2022/08/17 02:02:44;;;;;;;13.77;10.40;;;21.60;99.90;;;;;;5053730;28;20666;-69
2022/08/17 02:05:11;;;;;;;13.30;10.43;;;21.50;99.90;;;;;;5053332;28;20314;-70
2022/08/17 02:07:37;;;;;;;13.87;10.03;;;21.40;99.90;;;;;;5053679;28;20423;-69
2022/08/17 02:10:05;;;;;;;11.20;10.00;;;21.30;99.90;;;;;;5053336;28;20410;-70
2022/08/17 02:12:30;;;;;;;12.50;9.60;;;21.40;99.90;;;;;;5053457;28;20403;-70
2022/08/17 02:14:56;;;;;;;11.27;10.03;;;21.40;99.90;;;;;;5053388;28;20398;-70
2022/08/17 02:17:22;;;;;;;10.20;9.20;;;21.40;99.90;;;;;;5053774;28;20172;-70
2022/08/17 02:19:47;;;;;;;12.80;8.53;;;21.30;99.90;;;;;;5053817;28;20170;-72
2022/08/17 02:22:13;;;;;;;11.30;9.93;;;21.30;99.90;;;;;;5053519;28;20170;-70
2022/08/17 02:24:38;;;;;;;9.57;8.57;;;21.30;99.90;;;;;;5053140;28;20174;-70
2022/08/17 02:27:05;;;;;;;11.73;9.47;;;21.30;99.90;;;;;;5053362;28;20560;-70
2022/08/17 02:29:31;;;;;;;10.97;9.70;;;21.30;99.90;;;;;;5053231;28;20215;-70
2022/08/17 02:31:57;;;;;;;11.10;9.50;;;21.30;99.90;;;;;;5053672;28;20409;-69
2022/08/17 02:34:23;;;;;;;10.20;9.20;;;21.20;99.90;;;;;;5052059;28;20773;-71
2022/08/17 02:36:49;;;;;;;11.23;10.00;;;21.10;99.90;;;;;;5053249;28;21031;-70
2022/08/17 02:39:14;;;;;;;11.23;9.20;;;21.10;99.90;;;;;;5053142;28;20468;-70
2022/08/17 02:41:40;;;;;;;11.77;9.80;;;21.10;99.90;;;;;;5053098;28;20225;-70
2022/08/17 02:44:06;;;;;;;11.70;10.17;;;21.10;99.90;;;;;;5052955;28;20538;-70
2022/08/17 02:46:32;;;;;;;11.97;8.70;;;21.10;99.90;;;;;;5052492;28;20205;-70
2022/08/17 02:48:58;;;;;;;12.10;9.87;;;21.10;99.90;;;;;;5052729;28;20495;-70
2022/08/17 02:51:25;;;;;;;10.47;9.37;;;21.00;99.90;;;;;;5052521;28;20417;-69
2022/08/17 02:53:50;;;;;;;13.30;8.80;;;21.00;99.90;;;;;;5052752;28;20412;-71
2022/08/17 02:56:16;;;;;;;10.43;9.07;;;21.00;99.90;;;;;;5052494;28;20466;-71
2022/08/17 02:58:41;;;;;;;11.60;9.80;;;21.10;99.90;;;;;;5052656;28;20255;-70
2022/08/17 03:01:08;;;;;;;9.90;8.90;;;21.10;99.90;;;;;;5052973;28;20182;-71
2022/08/17 03:03:35;;;;;;;13.20;9.30;;;21.10;99.90;;;;;;5052867;28;20256;-70
2022/08/17 03:06:01;;;;;;;12.90;8.63;;;21.10;99.90;;;;;;5051971;28;20458;-70
2022/08/17 03:08:27;;;;;;;10.67;8.63;;;21.10;99.90;;;;;;5052582;28;20475;-71
2022/08/17 03:10:53;;;;;;;12.87;11.10;;;21.10;99.90;;;;;;5052570;28;20408;-70
2022/08/17 03:13:18;;;;;;;11.10;10.07;;;21.00;99.90;;;;;;5052469;28;20411;-70
2022/08/17 03:15:46;;;;;;;11.93;10.80;;;21.10;99.90;;;;;;5052392;28;20220;-70
2022/08/17 03:18:14;;;;;;;11.00;8.73;;;21.00;99.90;;;;;;5052269;28;20739;-70
2022/08/17 03:20:40;;;;;;;12.40;8.80;;;21.00;99.90;;;;;;5052164;28;20938;-70
2022/08/17 03:23:06;;;;;;;16.60;10.00;;;20.90;99.90;;;;;;5052317;28;20413;-70
2022/08/17 03:25:38;;;;;;;11.00;8.40;;;20.80;99.90;;;;;;5051727;28;20951;-71
2022/08/17 03:28:04;;;;;;;13.50;10.10;;;20.70;99.90;;;;;;5051995;28;20938;-71
2022/08/17 03:30:31;;;;;;;12.50;10.20;;;20.70;99.90;;;;;;5052077;28;20883;-71
2022/08/17 03:32:59;;;;;;;10.87;9.00;;;20.70;99.90;;;;;;5051903;28;20405;-71
2022/08/17 03:35:27;;;;;;;11.50;9.60;;;20.80;99.90;;;;;;5033668;28;20415;-72
2022/08/17 03:37:54;;;;;;;11.63;9.13;;;20.90;99.90;;;;;;5051855;28;20804;-70
2022/08/17 03:40:19;;;;;;;12.47;9.90;;;20.90;99.90;;;;;;5034133;28;20909;-70
2022/08/17 03:42:46;;;;;;;11.63;10.43;;;20.90;99.90;;;;;;5052080;28;20485;-70
2022/08/17 03:45:16;;;;;;;11.40;9.27;;;21.00;99.90;;;;;;5051208;28;20673;-71
2022/08/17 03:58:48;;;;;;;10.90;7.97;;;20.80;99.90;;;;;;5057338;28;20453;-71
2022/08/17 04:01:14;;;;;;;11.50;10.30;;;20.70;99.90;;;;;;5051954;28;20798;-71
2022/08/17 04:03:39;;;;;;;11.73;10.53;;;20.70;99.90;;;;;;5051353;28;20843;-71
2022/08/17 04:06:05;;;;;;;12.83;9.47;;;20.70;99.90;;;;;;5050377;28;20460;-71
2022/08/17 04:08:32;;;;;;;10.73;9.20;;;20.80;99.90;;;;;;5049761;28;20552;-71
2022/08/17 04:10:59;;;;;;;10.63;8.83;;;20.70;99.90;;;;;;5051003;28;20405;-71
2022/08/17 04:13:25;;;;;;;11.53;9.07;;;20.80;99.90;;;;;;5051335;28;20925;-71
2022/08/17 04:15:51;;;;;;;11.87;9.70;;;20.80;99.90;;;;;;5050037;28;20430;-71
2022/08/17 04:18:17;;;;;;;11.63;10.43;;;20.80;99.90;;;;;;5050765;28;20442;-71
2022/08/17 04:20:43;;;;;;;14.37;10.40;;;20.80;99.90;;;;;;5056221;28;20421;-71
2022/08/17 04:23:16;;;;;;;11.80;9.97;;;20.80;99.90;;;;;;5064580;28;20438;-70
2022/08/17 04:25:47;;;;;;;12.27;9.37;;;20.80;99.90;;;;;;5050651;28;20451;-70
2022/08/17 04:28:15;;;;;;;12.00;10.40;;;20.80;99.90;;;;;;5050886;28;20453;-70
2022/08/17 04:30:43;;;;;;;13.33;11.23;;;20.90;99.90;;;;;;5051395;28;20426;-71
2022/08/17 04:33:12;;;;;;;12.03;9.97;;;21.00;99.90;;;;;;5051163;28;20431;-71
2022/08/17 04:35:48;;;;;;;11.93;10.67;;;21.00;99.90;;;;;;5061430;28;20514;-71
2022/08/17 04:38:17;;;;;;;10.87;9.43;;;21.00;99.90;;;;;;5053583;28;20466;-70
2022/08/17 04:43:28;;;;;;;11.83;10.73;;;21.00;99.90;;;;;;5070111;28;20433;-71
2022/08/17 04:46:00;;;;;;;12.60;10.87;;;21.30;99.90;;;;;;5070209;28;20905;-70
2022/08/17 04:48:31;;;;;;;11.20;10.07;;;21.30;99.90;;;;;;5067107;28;20425;-70
2022/08/17 04:50:58;;;;;;;12.83;10.30;;;21.40;99.90;;;;;;5050312;28;20420;-70
2022/08/17 04:53:24;;;;;;;11.30;9.70;;;21.50;99.90;;;;;;5050684;28;20467;-71
2022/08/17 04:55:53;;;;;;;12.57;11.47;;;21.60;99.90;;;;;;5050309;28;20415;-70
2022/08/17 04:58:19;;;;;;;12.70;11.13;;;21.70;99.90;;;;;;5052864;28;20446;-71
2022/08/17 05:00:45;;;;;;;11.87;10.67;;;21.80;99.90;;;;;;5054464;28;20412;-72
2022/08/17 05:03:11;;;;;;;11.23;10.10;;;22.00;99.90;;;;;;5054842;28;20182;-71
2022/08/17 05:05:39;;;;;;;11.53;10.37;;;22.10;99.90;;;;;;5036015;28;20204;-70
2022/08/17 05:08:06;;;;;;;12.60;9.60;;;22.20;99.90;;;;;;5054579;28;20433;-70
2022/08/17 05:10:35;;;;;;;12.17;10.37;;;22.30;99.90;;;;;;5054364;28;20458;-71
2022/08/17 05:13:04;;;;;;;10.77;9.67;;;22.40;99.90;;;;;;5054406;28;20499;-71
2022/08/17 05:15:29;;;;;;;11.50;10.20;;;22.50;99.90;;;;;;5053761;28;20416;-71
2022/08/17 05:17:55;;;;;;;12.23;10.23;;;22.60;99.90;;;;;;5054184;28;20457;-71
2022/08/17 05:20:22;;;;;;;11.37;9.90;;;22.60;99.90;;;;;;5054160;28;20188;-71
2022/08/17 05:22:50;;;;;;;11.97;9.47;;;22.80;99.90;;;;;;5059953;28;20173;-71
2022/08/17 05:25:24;;;;;;;10.37;8.30;;;22.90;99.90;;;;;;5064691;28;20617;-71
2022/08/17 05:30:16;;;;;;;10.07;9.00;;;23.10;99.90;;;;;;5089207;22;20585;-67
2022/08/17 05:32:53;;;;;;;13.83;10.37;;;23.20;99.90;;;;;;5075051;28;20223;-67
2022/08/17 05:35:20;;;;;;;11.23;8.40;;;23.50;99.90;;;;;;5074962;28;20408;-67
2022/08/17 05:37:46;;;;;;;10.17;9.07;;;24.10;99.90;;;;;;5075082;28;20780;-67
2022/08/17 05:40:12;;;;;;;8.23;7.43;;;24.20;99.90;;;;;;5094878;28;20415;-67
2022/08/17 05:42:38;;;;;;;10.03;8.97;;;24.60;99.90;;;;;;5082139;28;20739;-67
2022/08/17 05:45:04;;;;;;;10.53;8.63;;;24.80;99.90;;;;;;5074747;28;20474;-67
2022/08/17 05:47:30;;;;;;;11.43;9.97;;;25.00;99.90;;;;;;5074856;28;20175;-67
2022/08/17 05:49:56;;;;;;;10.60;9.60;;;24.90;99.90;;;;;;5081751;28;20854;-67
2022/08/17 05:52:28;;;;;;;10.70;9.50;;;24.70;99.90;;;;;;5094935;28;20238;-67
2022/08/17 05:55:38;;;;;;;11.70;10.60;;;24.90;99.90;;;;;;5094658;28;20406;-67
2022/08/17 05:58:31;;;;;;;10.93;9.90;;;24.90;99.90;;;;;;5012608;28;20477;-67
2022/08/17 06:01:06;;;;;;;11.57;10.33;;;24.90;99.90;;;;;;5092663;28;20415;-67
2022/08/17 06:03:37;;;;;;;11.00;9.90;;;25.10;99.90;;;;;;5094921;28;20394;-68
2022/08/17 06:06:24;;;;;;;11.37;10.23;;;25.70;99.90;;;;;;5094534;28;20545;-67
2022/08/17 06:08:59;;;;;;;11.63;9.17;;;25.90;99.90;;;;;;5081157;28;20502;-67
2022/08/17 06:12:02;;;;;;;10.03;8.57;;;26.20;99.90;;;;;;5089816;28;20403;-67
2022/08/17 06:14:51;;;;;;;10.50;9.50;;;26.60;99.90;;;;;;5093151;28;20398;-67
2022/08/17 06:17:20;;;;;;;9.93;8.90;;;26.50;99.90;;;;;;5061087;28;20420;-67
2022/08/17 06:19:49;;;;;;;10.97;9.87;;;26.70;99.90;;;;;;5074374;28;20844;-67
2022/08/17 06:22:19;;;;;;;10.13;8.60;;;27.80;99.90;;;;;;5075264;28;20397;-67
2022/08/17 06:24:55;;;;;;;7.20;6.50;;;28.30;99.90;;;;;;5094009;28;20408;-66
2022/08/17 06:27:25;;;;;;;5.90;5.40;;;29.00;99.90;;;;;;5092441;28;20454;-66
2022/08/17 06:30:07;;;;;;;5.43;5.00;;;29.50;99.90;;;;;;5074738;28;20454;-66
2022/08/17 06:32:34;;;;;;;5.47;4.97;;;30.00;99.90;;;;;;5074390;28;20411;-66
2022/08/17 06:35:01;;;;;;;7.70;5.77;;;29.70;99.90;;;;;;5074081;28;20412;-67
2022/08/17 06:37:47;;;;;;;7.13;6.27;;;30.30;99.00;;;;;;5074257;28;20408;-67
2022/08/17 06:40:38;;;;;;;5.67;5.23;;;29.50;99.90;;;;;;5074114;28;20507;-66
2022/08/17 06:43:17;;;;;;;7.30;6.00;;;30.10;99.20;;;;;;5073638;28;20496;-66
2022/08/17 06:45:49;;;;;;;6.83;5.40;;;30.20;99.90;;;;;;5073377;28;20849;-67
2022/08/17 06:48:23;;;;;;;7.83;5.37;;;29.20;99.00;;;;;;5081199;28;20519;-67
2022/08/17 06:50:58;;;;;;;6.10;5.50;;;29.10;98.60;;;;;;5094010;28;20482;-66
2022/08/17 06:53:47;;;;;;;5.90;5.40;;;29.50;99.50;;;;;;5077092;28;20924;-67
2022/08/17 06:56:22;;;;;;;6.87;5.60;;;29.90;98.20;;;;;;5052970;28;20994;-66
2022/08/17 06:58:48;;;;;;;6.20;5.60;;;30.40;98.30;;;;;;5053333;28;20421;-67
2022/08/17 07:01:19;;;;;;;9.17;5.90;;;30.70;97.40;;;;;;5053436;28;20412;-67
2022/08/17 07:04:09;;;;;;;7.10;5.50;;;31.60;95.10;;;;;;5053339;28;20417;-68
2022/08/17 07:06:43;;;;;;;6.27;5.77;;;31.80;95.10;;;;;;5053045;28;20449;-67
2022/08/17 07:09:22;;;;;;;5.97;5.23;;;31.90;94.80;;;;;;5065788;28;20941;-67
2022/08/17 07:11:53;;;;;;;6.00;5.40;;;32.50;93.20;;;;;;5072802;28;20411;-67
2022/08/17 07:14:39;;;;;;;4.97;4.47;;;31.70;93.90;;;;;;5078503;28;20507;-67
2022/08/17 07:17:17;;;;;;;4.87;4.47;;;30.90;94.20;;;;;;5072609;28;20401;-68
2022/08/17 07:19:46;;;;;;;5.63;4.80;;;32.10;93.20;;;;;;5072964;28;20858;-67
2022/08/17 07:22:45;;;;;;;5.00;4.60;;;32.00;93.40;;;;;;5072453;28;20483;-67
2022/08/17 07:25:17;;;;;;;4.73;4.33;;;33.10;92.70;;;;;;5072864;28;20812;-67
2022/08/17 07:27:49;;;;;;;4.57;4.00;;;32.70;90.60;;;;;;5073057;28;20396;-67
2022/08/17 07:30:27;;;;;;;3.40;3.10;;;32.70;90.80;;;;;;5072919;28;20512;-67
2022/08/17 07:32:59;;;;;;;4.40;4.00;;;33.30;86.00;;;;;;5072877;28;20757;-68
2022/08/17 07:35:27;;;;;;;4.47;4.17;;;34.00;83.20;;;;;;5071770;28;20422;-68
2022/08/17 07:38:10;;;;;;;5.50;4.30;;;33.90;80.00;;;;;;5072925;28;20400;-67
2022/08/17 07:40:40;;;;;;;4.10;3.80;;;33.30;83.50;;;;;;5072489;28;20392;-68
2022/08/17 07:43:21;;;;;;;4.90;4.33;;;33.90;80.70;;;;;;5077894;28;20774;-68
2022/08/17 07:48:42;;;;;;;4.07;3.53;;;32.20;87.60;;;;;;5072746;28;20462;-68
2022/08/17 07:51:20;;;;;;;4.33;3.97;;;32.90;83.40;;;;;;5072202;28;20404;-68
2022/08/17 07:53:46;;;;;;;6.10;4.43;;;32.50;84.10;;;;;;5071838;28;20404;-67
2022/08/17 07:56:39;;;;;;;5.03;4.10;;;32.80;82.20;;;;;;5071568;28;20429;-67
2022/08/17 07:59:13;;;;;;;3.73;3.40;;;32.70;85.60;;;;;;5072451;28;20869;-66
2022/08/17 08:01:40;;;;;;;3.87;3.57;;;33.00;85.90;;;;;;5072176;28;20400;-67
2022/08/17 08:04:26;;;;;;;5.07;3.50;;;32.60;79.70;;;;;;5072118;28;20464;-67
2022/08/17 08:06:54;;;;;;;4.30;3.90;;;34.20;78.10;;;;;;5071720;28;20942;-67
2022/08/17 08:09:33;;;;;;;5.10;4.60;;;32.20;81.90;;;;;;5071826;28;20460;-67
2022/08/17 08:12:19;;;;;;;4.13;3.73;;;31.90;84.60;;;;;;5072022;28;20776;-67
2022/08/17 08:14:55;;;;;;;4.33;3.93;;;32.30;81.80;;;;;;5071575;28;20454;-67
2022/08/17 08:17:24;;;;;;;5.63;3.83;;;32.10;81.00;;;;;;5071954;28;20921;-67
2022/08/17 08:19:50;;;;;;;5.27;3.40;;;32.20;83.90;;;;;;5071963;28;20796;-67
2022/08/17 08:22:29;;;;;;;4.30;3.93;;;33.40;78.70;;;;;;5071815;28;20400;-67
2022/08/17 08:25:06;;;;;;;4.60;3.50;;;33.20;77.70;;;;;;5071595;28;20170;-68
2022/08/17 08:28:05;;;;;;;4.13;3.80;;;32.90;80.30;;;;;;5072331;28;20739;-67
2022/08/17 08:30:34;;;;;;;3.90;3.57;;;34.00;73.80;;;;;;5065413;28;20409;-67
2022/08/17 08:33:16;;;;;;;4.50;4.10;;;34.50;71.90;;;;;;5069763;28;20486;-66
2022/08/17 08:35:54;;;;;;;4.30;3.90;;;35.20;70.20;;;;;;5071375;28;20411;-68
2022/08/17 08:38:29;;;;;;;7.17;3.47;;;33.50;72.70;;;;;;5071588;28;20447;-67
2022/08/17 08:41:37;;;;;;;3.77;3.43;;;33.20;78.30;;;;;;5071665;28;20415;-66
2022/08/17 08:44:42;;;;;;;3.33;3.13;;;34.70;69.90;;;;;;5070908;28;20844;-68
2022/08/17 08:47:43;;;;;;;4.80;3.70;;;34.70;68.60;;;;;;5082210;28;20504;-68
2022/08/17 08:50:26;;;;;;;3.03;2.80;;;35.90;65.30;;;;;;5091532;28;20958;-67
2022/08/17 08:53:14;;;;;;;3.73;3.43;;;33.40;69.60;;;;;;5091810;28;20403;-67
2022/08/17 08:55:43;;;;;;;4.10;3.47;;;33.20;73.10;;;;;;5077977;28;20422;-67
2022/08/17 08:58:16;;;;;;;4.20;3.90;;;33.10;73.30;;;;;;5091796;28;20403;-66
2022/08/17 09:00:47;;;;;;;4.40;3.70;;;32.40;75.70;;;;;;5091674;28;20411;-67
2022/08/17 09:03:36;;;;;;;4.00;3.70;;;32.70;74.20;;;;;;5090642;28;20425;-67
2022/08/17 09:06:38;;;;;;;3.93;3.63;;;34.30;69.30;;;;;;5091300;28;20538;-67
2022/08/17 09:09:15;;;;;;;4.03;3.10;;;35.50;65.00;;;;;;5063415;28;20864;-67
2022/08/17 09:11:54;;;;;;;2.73;2.53;;;35.00;64.10;;;;;;5071874;28;20396;-68
2022/08/17 09:14:38;;;;;;;3.67;3.00;;;35.90;60.00;;;;;;5071413;28;20388;-68
2022/08/17 09:17:18;;;;;;;2.90;2.70;;;35.40;60.70;;;;;;5071110;28;20415;-68
2022/08/17 09:19:50;;;;;;;5.90;4.80;;;35.40;62.30;;;;;;5071034;28;20442;-66
2022/08/17 09:22:42;;;;;;;9.17;8.43;;;35.20;60.10;;;;;;5072529;28;20547;-67
2022/08/17 09:25:20;;;;;;;7.00;6.30;;;34.40;63.10;;;;;;5088393;28;20436;-66
2022/08/17 09:28:02;;;;;;;4.90;4.50;;;33.80;66.70;;;;;;5073736;28;20415;-66
2022/08/17 09:30:36;;;;;;;3.73;3.53;;;33.50;67.90;;;;;;5050941;28;20396;-67
2022/08/17 09:33:07;;;;;;;4.77;4.30;;;33.40;66.80;;;;;;5061042;28;20465;-66
2022/08/17 09:35:41;;;;;;;3.17;2.97;;;33.80;67.10;;;;;;5070487;28;20439;-67
2022/08/17 09:38:48;;;;;;;3.03;2.80;;;34.80;62.80;;;;;;5071143;28;20403;-67
2022/08/17 09:41:26;;;;;;;3.83;3.53;;;35.50;60.30;;;;;;5025964;28;20820;-67
2022/08/17 09:44:27;;;;;;;2.77;2.50;;;34.10;65.10;;;;;;5072063;28;20399;-66
2022/08/17 09:47:03;;;;;;;3.33;3.03;;;33.50;62.70;;;;;;5054289;28;20444;-66
2022/08/17 09:49:38;;;;;;;3.77;2.83;;;34.00;62.20;;;;;;5054837;28;20424;-66
2022/08/17 09:52:13;;;;;;;2.90;2.70;;;34.90;60.10;;;;;;5054828;28;20491;-67
2022/08/17 09:54:39;;;;;;;2.80;2.60;;;34.10;61.50;;;;;;5054653;28;20805;-67
2022/08/17 09:57:39;;;;;;;4.53;2.40;;;34.00;63.10;;;;;;5054588;28;20413;-67
2022/08/17 10:00:12;;;;;;;3.40;3.10;;;35.10;59.50;;;;;;5054550;28;20475;-67
2022/08/17 10:02:56;;;;;;;3.27;2.97;;;35.10;58.50;;;;;;5054561;28;20405;-69
2022/08/17 10:05:56;;;;;;;3.97;2.87;;;34.60;58.80;;;;;;5054017;28;20405;-68
2022/08/17 10:08:42;;;;;;;2.90;2.70;;;33.10;61.80;;;;;;5021611;28;20444;-68
2022/08/17 10:14:49;;;;;;;2.83;2.63;;;32.90;62.70;;;;;;5074271;28;20767;-67
2022/08/17 10:17:26;;;;;;;2.50;2.30;;;33.20;59.00;;;;;;5061324;28;20466;-68
2022/08/17 10:20:05;;;;;;;2.33;2.13;;;33.10;59.50;;;;;;5073926;28;20420;-68
2022/08/17 10:28:15;;;;;;;3.10;2.90;;;32.40;61.70;;;;;;5074081;28;20424;-67
2022/08/17 10:30:52;;;;;;;3.73;3.43;;;32.90;61.60;;;;;;5055797;28;20559;-67
2022/08/17 10:33:26;;;;;;;3.27;3.07;;;32.60;62.50;;;;;;5074052;28;20404;-67
2022/08/17 10:36:18;;;;;;;5.60;2.80;;;32.40;65.60;;;;;;5073488;28;20422;-67
2022/08/17 10:39:01;;;;;;;3.77;3.47;;;32.60;63.70;;;;;;5073680;28;20546;-68
2022/08/17 10:41:56;;;;;;;5.90;4.67;;;32.60;65.60;;;;;;5073854;28;20427;-68
2022/08/17 10:44:44;;;;;;;3.70;3.40;;;32.80;63.80;;;;;;5071201;28;20416;-66
2022/08/17 10:47:13;;;;;;;2.73;2.53;;;32.30;61.20;;;;;;5073384;28;20492;-67
2022/08/17 10:49:52;;;;;;;3.60;3.23;;;32.20;61.50;;;;;;5073227;28;20439;-67
2022/08/17 10:52:21;;;;;;;3.93;3.53;;;32.00;62.60;;;;;;5073682;28;20505;-67
2022/08/17 10:54:51;;;;;;;2.90;2.70;;;31.80;63.80;;;;;;5072740;28;20873;-66
2022/08/17 10:57:26;;;;;;;6.53;3.67;;;31.80;63.30;;;;;;5073041;28;20899;-67
2022/08/17 10:59:53;;;;;;;4.13;3.40;;;32.00;64.10;;;;;;5073172;28;20442;-67
2022/08/17 11:02:30;;;;;;;3.00;2.80;;;32.20;63.40;;;;;;5073441;28;20887;-67
2022/08/17 11:05:10;;;;;;;5.97;3.77;;;32.20;62.80;;;;;;5072970;28;20396;-67
2022/08/17 11:08:12;;;;;;;11.07;9.63;;;32.50;64.60;;;;;;5073282;28;20419;-67
2022/08/17 11:10:48;;;;;;;3.50;3.20;;;32.60;64.10;;;;;;5073107;28;20963;-67
2022/08/17 11:13:22;;;;;;;3.17;2.93;;;31.70;62.40;;;;;;5065643;28;20397;-66
2022/08/17 11:16:05;;;;;;;4.50;3.83;;;32.00;63.00;;;;;;5072571;28;20407;-67
2022/08/17 11:19:09;;;;;;;2.80;2.60;;;32.10;63.20;;;;;;5072480;28;20834;-66
2022/08/17 11:22:05;;;;;;;5.33;4.83;;;32.20;62.40;;;;;;5072785;28;20466;-67
2022/08/17 11:24:31;;;;;;;12.33;10.93;;;32.40;62.30;;;;;;5072461;28;20866;-67
2022/08/17 11:27:06;;;;;;;6.90;6.27;;;32.40;62.60;;;;;;5072313;28;20456;-67
2022/08/17 11:29:54;;;;;;;6.83;5.40;;;32.50;61.30;;;;;;5084300;22;20325;-72
2022/08/17 11:32:45;;;;;;;4.60;4.20;;;32.30;61.60;;;;;;5046146;28;20476;-72
2022/08/17 11:35:20;;;;;;;3.13;2.90;;;32.80;60.40;;;;;;5068452;28;20411;-72
2022/08/17 11:37:54;;;;;;;3.30;3.10;;;32.20;59.90;;;;;;5058633;28;20444;-72
2022/08/17 11:40:34;;;;;;;3.10;2.90;;;32.20;60.50;;;;;;5052465;28;20873;-73
2022/08/17 11:43:44;;;;;;;6.70;3.70;;;32.90;58.10;;;;;;5034756;28;20419;-71
2022/08/17 11:52:47;;;;;;;3.10;2.87;;;32.80;58.90;;;;;;5052733;28;20401;-71
2022/08/17 11:55:30;;;;;;;3.83;3.53;;;33.30;58.80;;;;;;5034643;28;20459;-72
2022/08/17 11:58:00;;;;;;;2.67;2.47;;;33.30;58.40;;;;;;5052527;28;20401;-72
2022/08/17 12:00:44;;;;;;;3.20;3.00;;;33.50;57.80;;;;;;5052102;28;20421;-72
2022/08/17 12:03:45;;;;;;;3.27;2.97;;;33.10;58.50;;;;;;5052386;28;20412;-72
2022/08/17 12:06:18;;;;;;;3.63;3.07;;;32.50;59.00;;;;;;4951457;28;20449;-73
2022/08/17 12:08:52;;;;;;;3.27;2.97;;;32.40;60.10;;;;;;5037012;28;20491;-72
2022/08/17 12:11:40;;;;;;;3.60;3.10;;;32.70;59.00;;;;;;5032594;28;20456;-72
2022/08/17 12:14:07;;;;;;;3.33;3.10;;;32.90;57.70;;;;;;5033649;28;20817;-71
2022/08/17 12:16:33;;;;;;;2.60;2.37;;;32.90;57.50;;;;;;5047870;28;20415;-71
2022/08/17 12:19:01;;;;;;;2.80;2.60;;;32.80;57.90;;;;;;5055211;28;20500;-71
2022/08/17 12:21:42;;;;;;;3.93;2.87;;;32.80;58.10;;;;;;5072119;28;20165;-72
2022/08/17 12:24:19;;;;;;;2.50;2.30;;;33.20;57.00;;;;;;5072247;28;20411;-73
2022/08/17 12:26:53;;;;;;;2.97;2.77;;;32.60;58.10;;;;;;5068452;28;20440;-72
2022/08/17 12:29:18;;;;;;;4.87;2.57;;;32.60;58.40;;;;;;5051489;28;20441;-72
2022/08/17 12:31:47;;;;;;;3.70;3.13;;;32.40;59.60;;;;;;5051769;28;20435;-72
2022/08/17 12:34:18;;;;;;;3.53;3.23;;;32.40;60.60;;;;;;5051554;28;20640;-72
2022/08/17 12:36:49;;;;;;;3.80;2.93;;;32.60;59.30;;;;;;5051418;28;20485;-72
2022/08/17 12:39:21;;;;;;;6.03;2.70;;;32.90;57.90;;;;;;5051624;28;20421;-71
2022/08/17 12:41:50;;;;;;;3.43;2.70;;;33.10;58.30;;;;;;5051501;28;20402;-71
2022/08/17 12:44:42;;;;;;;3.57;3.20;;;33.20;56.10;;;;;;5051638;28;20980;-71
2022/08/17 12:47:16;;;;;;;3.30;2.30;;;33.10;56.20;;;;;;5047872;28;20564;-71
2022/08/17 12:49:43;;;;;;;3.03;2.83;;;33.00;57.00;;;;;;5052095;28;20430;-71
2022/08/17 12:52:13;;;;;;;4.50;2.90;;;32.70;58.40;;;;;;5053149;28;20401;-72
2022/08/17 12:55:04;;;;;;;3.20;3.00;;;33.00;58.90;;;;;;5057107;28;20479;-72
2022/08/17 12:57:50;;;;;;;3.07;2.87;;;33.10;58.90;;;;;;5055606;28;20397;-72
2022/08/17 13:00:20;;;;;;;3.10;2.87;;;32.90;58.80;;;;;;5069249;28;20424;-73
2022/08/17 13:03:06;;;;;;;3.07;2.87;;;32.80;58.80;;;;;;5073395;28;20420;-73
2022/08/17 13:05:41;;;;;;;3.67;3.10;;;33.00;58.80;;;;;;5053335;28;20462;-72
2022/08/17 13:08:22;;;;;;;3.00;2.70;;;33.10;58.30;;;;;;5071625;28;20890;-71
2022/08/17 13:10:59;;;;;;;2.47;2.27;;;33.20;56.90;;;;;;5071320;28;20898;-71
2022/08/17 13:13:31;;;;;;;3.30;3.10;;;33.30;56.70;;;;;;5071173;28;20423;-72
2022/08/17 13:15:59;;;;;;;3.30;3.10;;;33.30;57.10;;;;;;5062797;28;20405;-72
2022/08/17 13:18:46;;;;;;;4.03;3.73;;;32.90;57.80;;;;;;5054826;28;20405;-73
2022/08/17 13:21:18;;;;;;;3.73;3.43;;;32.50;58.60;;;;;;5055152;28;20409;-73
2022/08/17 13:24:17;;;;;;;3.60;3.30;;;32.40;59.10;;;;;;5068456;28;20440;-72
2022/08/17 13:26:46;;;;;;;3.20;2.90;;;32.60;58.00;;;;;;5060428;28;21068;-72
2022/08/17 13:29:22;;;;;;;3.50;3.20;;;32.60;58.60;;;;;;5075185;28;20444;-73
2022/08/17 13:31:51;;;;;;;3.63;3.33;;;32.40;58.90;;;;;;5074874;28;20396;-72
2022/08/17 13:34:28;;;;;;;4.87;3.40;;;32.20;59.30;;;;;;5066383;28;20906;-72
2022/08/17 13:37:25;;;;;;;2.80;2.60;;;32.40;59.40;;;;;;5054671;28;20804;-72
2022/08/17 13:40:06;;;;;;;3.50;3.10;;;32.10;59.50;;;;;;5054737;28;20424;-72
2022/08/17 13:42:41;;;;;;;3.70;3.40;;;32.40;60.00;;;;;;5054697;28;20451;-72
2022/08/17 13:45:31;;;;;;;3.50;3.20;;;32.50;58.50;;;;;;5053639;28;20408;-72
2022/08/17 13:48:07;;;;;;;4.03;3.20;;;32.60;58.70;;;;;;5034701;28;21056;-72
2022/08/17 13:50:39;;;;;;;3.20;3.00;;;32.40;59.00;;;;;;5034809;28;20426;-72